Terminal Aerodrome Forecast
Issued by NWS

Home | Current Version | Previous Version | Text Only | Print | Product List | Glossary On
Versions: 1 2 3 4 5 6 7 8 9 10 11 12 13 14 15 16
000
FTUS43 KDLH 180500
TAFBRD
TAF
KBRD 180520Z 1806/1906 VRB03KT P6SM SCT110
     FM180800 14003KT P6SM SCT070 BKN090
     FM181700 13011G16KT P6SM BKN070
     FM182000 12012G22KT P6SM SCT040 OVC070=

USA.gov is the U.S. government's official web portal to all federal, state and local government web resources and services.